createdAt,value
2024-02-27T00:02:22.634Z,0.95
2024-02-27T00:04:50.392Z,0.90
2024-02-27T00:07:19.977Z,0.45
2024-02-27T00:09:48.301Z,0.77
2024-02-27T00:12:16.804Z,0.90
2024-02-27T00:14:44.729Z,0.70
2024-02-27T00:17:13.832Z,1.23
2024-02-27T00:19:41.625Z,0.70
2024-02-27T00:22:09.423Z,0.95
2024-02-27T00:24:37.244Z,0.90
2024-02-27T00:27:05.110Z,1.02
2024-02-27T00:29:34.940Z,0.60
2024-02-27T00:32:02.782Z,1.00
2024-02-27T00:34:32.024Z,0.75
2024-02-27T00:36:59.922Z,0.73
2024-02-27T00:39:27.726Z,1.73
2024-02-27T00:41:58.392Z,0.95
2024-02-27T00:44:26.244Z,0.98
2024-02-27T00:46:53.982Z,0.70
2024-02-27T00:49:22.240Z,0.93
2024-02-27T00:51:51.489Z,0.80
2024-02-27T00:54:19.308Z,0.85
2024-02-27T00:56:47.086Z,0.80
2024-02-27T00:59:14.808Z,0.88
2024-02-27T01:01:42.499Z,0.68
2024-02-27T01:04:10.214Z,0.73
2024-02-27T01:06:38.037Z,0.93
2024-02-27T01:09:07.367Z,0.73
2024-02-27T01:11:35.250Z,1.25
2024-02-27T01:14:03.000Z,1.05
2024-02-27T01:16:30.801Z,0.73
2024-02-27T01:18:58.713Z,1.15
2024-02-27T01:21:26.730Z,1.10
2024-02-27T01:23:55.201Z,0.77
2024-02-27T01:26:24.369Z,0.88
2024-02-27T01:28:52.117Z,0.82
2024-02-27T01:31:19.816Z,0.85
2024-02-27T01:33:48.336Z,0.75
2024-02-27T01:36:16.213Z,1.13
2024-02-27T01:38:43.967Z,1.23
2024-02-27T01:41:11.630Z,0.88
2024-02-27T01:43:40.790Z,1.02
2024-02-27T01:46:14.547Z,1.20
2024-02-27T01:48:42.714Z,1.20
2024-02-27T01:51:11.655Z,1.10
2024-02-27T01:53:40.580Z,1.00
2024-02-27T01:56:09.843Z,1.05
2024-02-27T01:58:37.868Z,1.55
2024-02-27T02:01:08.036Z,1.10
2024-02-27T02:03:37.732Z,1.10
2024-02-27T02:06:06.000Z,1.05
2024-02-27T02:08:34.194Z,0.98
2024-02-27T02:11:02.203Z,1.00
2024-02-27T02:13:30.003Z,0.90
2024-02-27T02:15:57.794Z,0.90
2024-02-27T02:18:27.071Z,1.17
2024-02-27T02:20:56.369Z,1.05
2024-02-27T02:23:24.346Z,1.30
2024-02-27T02:25:52.439Z,1.00
2024-02-27T02:28:20.213Z,0.93
2024-02-27T02:30:47.950Z,1.05
2024-02-27T02:33:15.897Z,0.73
2024-02-27T02:35:44.843Z,1.00
2024-02-27T02:38:14.320Z,1.05
2024-02-27T02:40:42.117Z,1.17
2024-02-27T02:43:09.814Z,0.98
2024-02-27T02:45:37.632Z,0.90
2024-02-27T02:48:06.285Z,1.17
2024-02-27T02:50:34.674Z,1.38
2024-02-27T02:53:02.337Z,1.00
2024-02-27T02:55:31.560Z,0.95
2024-02-27T02:57:59.424Z,0.90
2024-02-27T03:00:27.142Z,1.00
2024-02-27T03:02:54.962Z,1.08
2024-02-27T03:05:22.762Z,1.02
2024-02-27T03:07:50.434Z,1.10
2024-02-27T03:10:18.798Z,0.80
2024-02-27T03:12:48.316Z,0.93
2024-02-27T03:15:16.318Z,0.80
2024-02-27T03:17:44.079Z,1.02
2024-02-27T03:20:12.271Z,0.82
2024-02-27T03:22:39.952Z,1.10
2024-02-27T03:25:08.228Z,0.98
2024-02-27T03:27:36.091Z,0.90
2024-02-27T03:30:06.219Z,0.57
2024-02-27T03:32:34.162Z,1.00
2024-02-27T03:35:02.066Z,0.70
2024-02-27T03:37:30.125Z,1.38
2024-02-27T03:39:57.956Z,0.60
2024-02-27T03:42:25.835Z,1.00
2024-02-27T03:44:53.731Z,0.70
2024-02-27T03:47:22.798Z,0.80
2024-02-27T03:49:50.681Z,0.80
2024-02-27T03:52:18.650Z,1.00
2024-02-27T03:54:46.383Z,1.00
2024-02-27T03:57:14.750Z,0.93
2024-02-27T03:59:42.526Z,0.68
2024-02-27T04:02:10.388Z,0.85
2024-02-27T04:04:39.509Z,1.00
2024-02-27T04:07:07.420Z,0.77
2024-02-27T04:09:35.292Z,0.95
2024-02-27T04:12:03.213Z,1.15
2024-02-27T04:14:31.018Z,0.77
2024-02-27T04:16:58.802Z,0.82
2024-02-27T04:19:26.732Z,0.90
2024-02-27T04:21:55.983Z,0.82
2024-02-27T04:24:23.758Z,0.75
2024-02-27T04:26:51.519Z,0.65
2024-02-27T04:29:19.228Z,1.25
2024-02-27T04:31:47.902Z,0.80
2024-02-27T04:34:16.457Z,1.00
2024-02-27T04:36:46.311Z,0.95
2024-02-27T04:39:16.150Z,1.08
2024-02-27T04:41:44.247Z,0.73
2024-02-27T04:44:12.916Z,1.10
2024-02-27T04:46:40.696Z,0.80
2024-02-27T04:49:08.506Z,0.82
2024-02-27T04:51:36.998Z,1.00
2024-02-27T04:54:05.060Z,0.70
2024-02-27T04:56:34.223Z,1.05
2024-02-27T04:59:02.674Z,1.05
2024-02-27T05:01:30.769Z,0.63
2024-02-27T05:03:58.625Z,1.17
2024-02-27T05:06:26.466Z,1.17
2024-02-27T05:08:54.258Z,1.15
2024-02-27T05:11:22.034Z,0.98
2024-02-27T05:13:51.133Z,0.93
2024-02-27T05:16:18.940Z,0.93
2024-02-27T05:18:46.836Z,0.70
2024-02-27T05:21:14.735Z,0.85
2024-02-27T05:23:42.452Z,0.70
2024-02-27T05:26:10.146Z,0.80
2024-02-27T05:28:38.543Z,1.30
2024-02-27T05:31:22.233Z,1.20
2024-02-27T05:33:50.055Z,0.90
2024-02-27T05:36:17.943Z,1.00
2024-02-27T05:38:45.730Z,0.85
2024-02-27T05:41:13.439Z,1.60
2024-02-27T05:43:41.219Z,0.90
2024-02-27T05:46:10.525Z,1.08
2024-02-27T05:48:38.626Z,0.65
2024-02-27T05:51:06.780Z,0.75
2024-02-27T05:53:35.283Z,0.60
2024-02-27T05:56:03.395Z,0.77
2024-02-27T05:58:31.220Z,0.88
2024-02-27T06:00:59.157Z,1.00
2024-02-27T06:03:28.433Z,0.70
2024-02-27T06:05:56.524Z,0.90
2024-02-27T06:08:26.066Z,0.77
2024-02-27T06:10:53.881Z,0.70
2024-02-27T06:13:22.261Z,1.00
2024-02-27T06:15:50.041Z,0.65
2024-02-27T06:18:17.916Z,0.90
2024-02-27T06:21:05.064Z,1.15
2024-02-27T06:23:33.480Z,0.73
2024-02-27T06:26:01.231Z,0.57
2024-02-27T06:28:28.998Z,0.63
2024-02-27T06:30:56.690Z,1.27
2024-02-27T06:33:24.543Z,0.98
2024-02-27T06:35:54.007Z,1.00
2024-02-27T06:38:21.722Z,1.33
2024-02-27T06:40:49.556Z,0.63
2024-02-27T06:43:17.282Z,1.10
2024-02-27T06:45:45.018Z,1.08
2024-02-27T06:48:14.626Z,0.93
2024-02-27T06:50:43.661Z,1.40
2024-02-27T06:53:13.295Z,1.00
2024-02-27T06:55:41.022Z,1.15
2024-02-27T06:58:08.921Z,0.82
2024-02-27T07:00:36.710Z,0.95
2024-02-27T07:03:04.814Z,1.15
2024-02-27T07:05:39.571Z,1.10
2024-02-27T07:08:11.327Z,0.95
2024-02-27T07:10:40.721Z,1.30
2024-02-27T07:13:10.070Z,1.35
2024-02-27T07:15:38.407Z,1.02
2024-02-27T07:18:07.542Z,0.90
2024-02-27T07:20:35.444Z,1.02
2024-02-27T07:23:03.775Z,1.33
2024-02-27T07:25:31.547Z,1.42
2024-02-27T07:28:00.647Z,1.30
2024-02-27T07:30:28.675Z,0.90
2024-02-27T07:32:56.612Z,1.20
2024-02-27T07:35:24.669Z,1.23
2024-02-27T07:37:52.557Z,0.95
2024-02-27T07:40:20.255Z,1.33
2024-02-27T07:42:48.504Z,1.35
2024-02-27T07:45:18.202Z,1.00
2024-02-27T07:47:46.486Z,1.05
2024-02-27T07:50:14.319Z,1.20
2024-02-27T07:52:42.088Z,0.80
2024-02-27T07:55:10.267Z,1.00
2024-02-27T07:57:38.124Z,1.10
2024-02-27T08:00:06.872Z,1.10
2024-02-27T08:02:35.920Z,1.20
2024-02-27T08:05:04.267Z,1.13
2024-02-27T08:07:33.125Z,0.98
2024-02-27T08:10:00.894Z,1.27
2024-02-27T08:12:28.714Z,1.20
2024-02-27T08:14:56.575Z,1.08
2024-02-27T08:17:24.403Z,1.20
2024-02-27T08:19:53.633Z,1.13
2024-02-27T08:22:21.613Z,1.30
2024-02-27T08:24:49.482Z,0.98
2024-02-27T08:27:17.319Z,1.58
2024-02-27T08:29:45.075Z,1.13
2024-02-27T08:32:12.784Z,1.02
2024-02-27T08:34:40.617Z,1.42
2024-02-27T08:37:09.917Z,1.08
2024-02-27T08:39:37.719Z,1.10
2024-02-27T08:42:05.882Z,0.98
2024-02-27T08:44:33.716Z,1.40
2024-02-27T08:47:03.820Z,0.98
2024-02-27T08:49:31.738Z,0.77
2024-02-27T08:52:00.132Z,0.95
2024-02-27T08:54:29.951Z,1.10
2024-02-27T08:56:57.675Z,1.38
2024-02-27T08:59:25.386Z,1.50
2024-02-27T09:01:53.086Z,1.33
2024-02-27T09:04:20.992Z,1.20
2024-02-27T09:06:48.886Z,1.20
2024-02-27T09:09:17.239Z,1.23
2024-02-27T09:11:48.899Z,1.33
2024-02-27T09:14:16.947Z,1.10
2024-02-27T09:16:44.674Z,1.23
2024-02-27T09:19:12.461Z,0.70
2024-02-27T09:21:40.330Z,0.85
2024-02-27T09:24:08.319Z,1.33
2024-02-27T09:26:36.015Z,0.95
2024-02-27T09:29:05.640Z,1.27
2024-02-27T09:31:33.351Z,1.10
2024-02-27T09:34:01.343Z,0.85
2024-02-27T09:36:29.182Z,0.88
2024-02-27T09:38:56.973Z,0.88
2024-02-27T09:41:28.914Z,0.85
2024-02-27T09:43:56.848Z,1.15
2024-02-27T09:46:26.413Z,0.95
2024-02-27T09:48:54.386Z,1.13
2024-02-27T09:51:23.086Z,0.82
2024-02-27T09:53:50.901Z,0.98
2024-02-27T09:56:18.796Z,1.20
2024-02-27T09:58:46.807Z,0.60
2024-02-27T10:01:15.401Z,1.25
2024-02-27T10:03:46.430Z,0.70
2024-02-27T10:06:16.043Z,0.65
2024-02-27T10:08:46.167Z,0.80
2024-02-27T10:11:13.959Z,1.00
2024-02-27T10:13:41.717Z,1.02
2024-02-27T10:16:09.728Z,0.90
2024-02-27T10:18:37.952Z,1.00
2024-02-27T10:21:08.194Z,0.70
2024-02-27T10:23:37.649Z,1.48
2024-02-27T10:26:09.102Z,0.95
2024-02-27T10:28:36.893Z,0.85
2024-02-27T10:31:05.897Z,0.85
2024-02-27T10:33:34.036Z,1.13
2024-02-27T10:36:02.116Z,0.68
2024-02-27T10:38:31.380Z,1.17
2024-02-27T10:40:59.457Z,0.93
2024-02-27T10:43:27.210Z,0.80
2024-02-27T10:45:56.168Z,0.75
2024-02-27T10:48:29.529Z,0.80
2024-02-27T10:51:01.971Z,1.13
2024-02-27T10:53:31.824Z,0.82
2024-02-27T10:55:59.843Z,0.90
2024-02-27T10:58:28.888Z,0.80
2024-02-27T11:00:57.122Z,0.70
2024-02-27T11:03:25.971Z,0.60
2024-02-27T11:05:53.834Z,0.70
2024-02-27T11:08:21.682Z,0.88
2024-02-27T11:10:50.976Z,0.52
2024-02-27T11:13:21.332Z,1.00
2024-02-27T11:15:49.507Z,0.85
2024-02-27T11:18:19.192Z,0.70
2024-02-27T11:20:47.679Z,0.77
2024-02-27T11:23:16.198Z,0.85
2024-02-27T11:25:44.325Z,1.02
2024-02-27T11:28:13.620Z,0.70
2024-02-27T11:30:42.157Z,0.82
2024-02-27T11:33:11.192Z,0.98
2024-02-27T11:35:39.198Z,0.80
2024-02-27T11:38:08.138Z,0.90
2024-02-27T11:40:49.670Z,0.52
2024-02-27T11:43:21.553Z,0.98
2024-02-27T11:45:49.766Z,1.00
2024-02-27T11:48:18.127Z,0.82
2024-02-27T11:50:46.197Z,0.98
2024-02-27T11:53:33.080Z,0.93
2024-02-27T11:56:00.742Z,0.60
2024-02-27T11:58:29.852Z,0.90
2024-02-27T12:00:58.194Z,0.50
2024-02-27T12:03:26.067Z,0.57
2024-02-27T12:06:00.975Z,0.98
2024-02-27T12:08:28.778Z,0.77
2024-02-27T12:10:56.609Z,0.70
2024-02-27T12:13:27.307Z,0.85
2024-02-27T12:16:00.509Z,0.50
2024-02-27T12:18:28.611Z,0.60
2024-02-27T12:20:56.886Z,0.70
2024-02-27T12:23:24.605Z,0.50
2024-02-27T12:25:52.365Z,0.40
2024-02-27T12:28:20.236Z,0.52
2024-02-27T12:30:49.512Z,0.82
2024-02-27T12:33:19.306Z,0.55
2024-02-27T12:35:47.408Z,0.47
2024-02-27T12:38:15.156Z,0.60
2024-02-27T12:40:43.261Z,0.63
2024-02-27T12:43:11.116Z,0.60
2024-02-27T12:45:38.927Z,0.77
2024-02-27T12:48:07.557Z,0.50
2024-02-27T12:50:37.067Z,0.40
2024-02-27T12:53:12.493Z,0.63
2024-02-27T12:55:41.748Z,0.75
2024-02-27T12:58:09.486Z,0.52
2024-02-27T13:00:38.347Z,1.00
2024-02-27T13:03:06.556Z,0.60
2024-02-27T13:05:35.181Z,0.63
2024-02-27T13:08:06.242Z,0.52
2024-02-27T13:10:35.296Z,0.30
2024-02-27T13:13:09.282Z,0.30
2024-02-27T13:15:37.389Z,0.50
2024-02-27T13:18:05.312Z,0.50
2024-02-27T13:20:33.162Z,0.77
2024-02-27T13:23:08.928Z,0.22
2024-02-27T13:25:43.919Z,0.60
2024-02-27T13:28:11.620Z,0.65
2024-02-27T13:30:39.375Z,1.13
2024-02-27T13:33:07.244Z,0.57
2024-02-27T13:35:35.032Z,0.38
2024-02-27T13:38:02.863Z,0.50
2024-02-27T13:40:30.590Z,0.40
2024-02-27T13:42:59.754Z,0.50
2024-02-27T13:45:27.540Z,0.65
2024-02-27T13:47:56.805Z,0.52
2024-02-27T13:50:24.648Z,0.32
2024-02-27T13:52:53.200Z,0.68
2024-02-27T13:55:20.965Z,0.63
2024-02-27T13:57:48.697Z,0.50
2024-02-27T14:00:18.808Z,0.50
2024-02-27T14:02:47.438Z,0.50
2024-02-27T14:05:15.229Z,0.60
2024-02-27T14:07:42.934Z,0.47
2024-02-27T14:10:10.855Z,0.52
2024-02-27T14:12:39.369Z,0.45
2024-02-27T14:15:09.787Z,0.32
2024-02-27T14:17:39.129Z,0.50
2024-02-27T14:20:07.215Z,0.65
2024-02-27T14:22:35.768Z,0.55
2024-02-27T14:25:04.713Z,0.40
2024-02-27T14:27:32.458Z,0.40
2024-02-27T14:30:01.964Z,0.38
2024-02-27T14:32:30.100Z,0.38
2024-02-27T14:34:59.370Z,0.52
2024-02-27T14:37:27.092Z,0.40
2024-02-27T14:39:54.904Z,0.40
2024-02-27T14:42:22.633Z,0.38
2024-02-27T14:44:50.438Z,0.20
2024-02-27T14:47:19.007Z,0.45
2024-02-27T14:49:46.846Z,0.60
2024-02-27T14:52:16.029Z,0.40
2024-02-27T14:54:45.640Z,0.43
2024-02-27T14:57:16.055Z,0.45
2024-02-27T14:59:44.217Z,0.45
2024-02-27T15:02:12.847Z,0.75
2024-02-27T15:04:40.784Z,0.73
2024-02-27T15:07:09.159Z,0.63
2024-02-27T15:09:38.410Z,0.40
2024-02-27T15:12:09.716Z,0.40
2024-02-27T15:14:37.579Z,0.38
2024-02-27T15:17:06.373Z,0.25
2024-02-27T15:19:34.628Z,0.55
2024-02-27T15:22:02.513Z,0.60
2024-02-27T15:24:30.331Z,0.40
2024-02-27T15:26:59.456Z,0.55
2024-02-27T15:29:27.473Z,0.40
2024-02-27T15:31:55.439Z,0.68
2024-02-27T15:34:24.468Z,0.60
2024-02-27T15:36:52.264Z,0.30
2024-02-27T15:39:20.132Z,0.47
2024-02-27T15:41:48.196Z,0.45
2024-02-27T15:44:21.523Z,0.52
2024-02-27T15:46:49.881Z,0.65
2024-02-27T15:49:17.701Z,0.55
2024-02-27T15:51:46.780Z,0.45
2024-02-27T15:54:14.735Z,0.65
2024-02-27T15:56:42.479Z,0.90
2024-02-27T15:59:10.189Z,0.40
2024-02-27T16:01:39.314Z,0.50
2024-02-27T16:04:16.134Z,0.30
2024-02-27T16:06:49.280Z,0.68
2024-02-27T16:09:19.323Z,0.47
2024-02-27T16:11:47.097Z,0.70
2024-02-27T16:14:14.898Z,0.30
2024-02-27T16:16:43.948Z,0.40
2024-02-27T16:19:13.111Z,0.65
2024-02-27T16:21:41.953Z,0.45
2024-02-27T16:24:10.406Z,0.95
2024-02-27T16:26:39.631Z,0.68
2024-02-27T16:29:07.545Z,0.43
2024-02-27T16:31:35.584Z,0.52
2024-02-27T16:34:04.907Z,0.65
2024-02-27T16:36:32.875Z,0.60
2024-02-27T16:39:00.619Z,0.63
2024-02-27T16:41:28.807Z,0.60
2024-02-27T16:43:56.514Z,0.47
2024-02-27T16:46:24.373Z,0.50
2024-02-27T16:48:52.167Z,0.50
2024-02-27T16:51:21.307Z,0.50
2024-02-27T16:53:49.074Z,0.60
2024-02-27T16:56:16.784Z,0.70
2024-02-27T16:58:44.488Z,0.35
2024-02-27T17:01:12.377Z,0.70
2024-02-27T17:03:42.179Z,0.55
2024-02-27T17:06:10.870Z,0.50
2024-02-27T17:08:39.996Z,0.40
2024-02-27T17:11:09.020Z,0.22
2024-02-27T17:13:36.877Z,0.63
2024-02-27T17:16:04.850Z,0.70
2024-02-27T17:18:33.690Z,0.82
2024-02-27T17:21:01.960Z,0.60
2024-02-27T17:23:29.775Z,0.65
2024-02-27T17:26:00.475Z,0.50
2024-02-27T17:28:28.352Z,0.50
2024-02-27T17:30:56.105Z,0.65
2024-02-27T17:33:23.959Z,0.45
2024-02-27T17:35:51.856Z,1.05
2024-02-27T17:38:19.568Z,0.65
2024-02-27T17:40:47.705Z,0.60
2024-02-27T17:43:16.911Z,0.65
2024-02-27T17:45:46.013Z,0.73
2024-02-27T17:48:16.085Z,0.70
2024-02-27T17:50:45.205Z,0.43
2024-02-27T17:53:12.961Z,0.68
2024-02-27T17:55:40.716Z,0.90
2024-02-27T17:58:08.982Z,0.65
2024-02-27T18:00:38.570Z,0.90
2024-02-27T18:03:06.716Z,0.82
2024-02-27T18:05:34.501Z,0.90
2024-02-27T18:08:02.207Z,0.70
2024-02-27T18:10:29.968Z,0.93
2024-02-27T18:12:57.782Z,1.10
2024-02-27T18:15:27.856Z,0.88
2024-02-27T18:17:57.152Z,1.10
2024-02-27T18:20:26.780Z,0.75
2024-02-27T18:22:54.613Z,0.65
2024-02-27T18:25:22.432Z,1.23
2024-02-27T18:27:50.324Z,0.90
2024-02-27T18:30:18.440Z,1.00
2024-02-27T18:32:46.735Z,0.98
2024-02-27T18:35:15.983Z,1.25
2024-02-27T18:37:43.756Z,1.05
2024-02-27T18:40:11.707Z,1.33
2024-02-27T18:42:39.619Z,1.35
2024-02-27T18:45:08.624Z,1.25
2024-02-27T18:47:36.464Z,1.77
2024-02-27T18:50:05.603Z,2.05
2024-02-27T18:52:36.127Z,2.20
2024-02-27T18:55:04.051Z,2.00
2024-02-27T18:57:31.829Z,1.90
2024-02-27T18:59:59.985Z,1.88
2024-02-27T19:02:27.771Z,2.00
2024-02-27T19:04:55.555Z,2.05
2024-02-27T19:07:23.300Z,1.80
2024-02-27T19:09:55.458Z,2.25
2024-02-27T19:12:24.111Z,2.03
2024-02-27T19:14:52.329Z,2.10
2024-02-27T19:17:20.209Z,1.80
2024-02-27T19:19:48.069Z,1.80
2024-02-27T19:22:17.538Z,2.13
2024-02-27T19:24:46.694Z,2.08
2024-02-27T19:27:15.929Z,1.88
2024-02-27T19:29:43.921Z,1.85
2024-02-27T19:32:11.783Z,2.10
2024-02-27T19:34:39.701Z,2.17
2024-02-27T19:37:07.458Z,1.98
2024-02-27T19:39:35.550Z,2.10
2024-02-27T19:42:03.540Z,2.20
2024-02-27T19:44:32.764Z,2.60
2024-02-27T19:47:00.689Z,2.83
2024-02-27T19:49:28.608Z,2.70
2024-02-27T19:51:57.894Z,2.60
2024-02-27T19:54:27.336Z,2.65
2024-02-27T19:56:55.262Z,2.45
2024-02-27T19:59:23.578Z,2.70
2024-02-27T20:01:52.783Z,1.50
2024-02-27T20:04:21.223Z,1.20
2024-02-27T20:06:49.028Z,2.05
2024-02-27T20:09:17.245Z,2.13
2024-02-27T20:11:45.934Z,1.50
2024-02-27T20:14:17.760Z,1.48
2024-02-27T20:16:45.619Z,1.35
2024-02-27T20:19:14.771Z,1.25
2024-02-27T20:21:42.907Z,1.40
2024-02-27T20:24:11.539Z,1.20
2024-02-27T20:26:42.290Z,1.33
2024-02-27T20:29:10.096Z,1.60
2024-02-27T20:31:37.828Z,1.60
2024-02-27T20:34:05.868Z,1.73
2024-02-27T20:36:35.088Z,1.45
2024-02-27T20:39:03.636Z,1.52
2024-02-27T20:41:31.362Z,1.73
2024-02-27T20:43:59.359Z,1.40
2024-02-27T20:46:27.086Z,1.58
2024-02-27T20:48:56.881Z,1.23
2024-02-27T20:51:24.743Z,1.40
2024-02-27T20:53:53.923Z,1.33
2024-02-27T20:56:21.788Z,1.30
2024-02-27T20:58:49.505Z,1.20
2024-02-27T21:01:17.305Z,1.75
2024-02-27T21:03:45.122Z,1.40
2024-02-27T21:06:12.896Z,1.42
2024-02-27T21:08:40.692Z,1.50
2024-02-27T21:11:09.793Z,1.92
2024-02-27T21:13:37.475Z,1.67
2024-02-27T21:16:05.565Z,1.80
2024-02-27T21:18:33.412Z,1.63
2024-02-27T21:21:01.536Z,1.42
2024-02-27T21:23:29.259Z,2.05
2024-02-27T21:26:00.160Z,1.52
2024-02-27T21:28:29.497Z,1.13
2024-02-27T21:30:57.215Z,1.80
2024-02-27T21:33:25.322Z,1.20
2024-02-27T21:35:53.059Z,1.38
2024-02-27T21:38:20.751Z,1.10
2024-02-27T21:40:48.489Z,1.08
2024-02-27T21:43:16.245Z,1.33
2024-02-27T21:45:45.513Z,1.20
2024-02-27T21:48:13.376Z,1.45
2024-02-27T21:50:41.208Z,1.40
2024-02-27T21:53:08.905Z,1.35
2024-02-27T21:55:37.111Z,1.33
2024-02-27T21:58:04.956Z,1.60
2024-02-27T22:00:32.814Z,1.38
2024-02-27T22:03:02.018Z,1.35
2024-02-27T22:05:29.887Z,1.20
2024-02-27T22:07:57.620Z,1.63
2024-02-27T22:10:25.291Z,0.80
2024-02-27T22:12:53.048Z,1.55
2024-02-27T22:15:20.833Z,1.42
2024-02-27T22:17:48.610Z,1.27
2024-02-27T22:20:17.747Z,0.85
2024-02-27T22:22:45.465Z,1.35
2024-02-27T22:25:13.257Z,1.27
2024-02-27T22:27:41.444Z,1.00
2024-02-27T22:30:10.443Z,1.10
2024-02-27T22:32:38.257Z,1.65
2024-02-27T22:35:06.195Z,1.33
2024-02-27T22:37:35.324Z,1.38
2024-02-27T22:40:03.900Z,1.45
2024-02-27T22:42:31.749Z,1.20
2024-02-27T22:44:59.483Z,1.45
2024-02-27T22:47:27.313Z,1.58
2024-02-27T22:49:55.068Z,1.35
2024-02-27T22:52:22.809Z,1.13
2024-02-27T22:54:53.882Z,1.70
2024-02-27T22:57:21.644Z,1.27
2024-02-27T22:59:49.541Z,0.82
2024-02-27T23:02:17.294Z,1.35
2024-02-27T23:04:45.017Z,1.33
2024-02-27T23:07:12.899Z,1.10
2024-02-27T23:09:40.724Z,1.45
2024-02-27T23:12:09.994Z,1.13
2024-02-27T23:14:37.809Z,1.33
2024-02-27T23:17:05.484Z,1.15
2024-02-27T23:19:34.429Z,1.02
2024-02-27T23:22:02.138Z,0.93
2024-02-27T23:24:29.904Z,1.48
2024-02-27T23:26:57.697Z,1.52
2024-02-27T23:29:26.924Z,1.15
2024-02-27T23:31:54.685Z,1.17
2024-02-27T23:34:22.410Z,1.35
2024-02-27T23:36:50.250Z,1.10
2024-02-27T23:39:18.178Z,1.58
2024-02-27T23:41:46.050Z,1.48
2024-02-27T23:44:13.732Z,1.27
2024-02-27T23:46:43.829Z,1.00
2024-02-27T23:49:11.711Z,1.30
2024-02-27T23:51:39.703Z,1.38
2024-02-27T23:54:07.507Z,1.20
2024-02-27T23:56:35.327Z,1.23
2024-02-27T23:59:03.099Z,1.17
